createdAt,value
2022-07-30T00:01:17.588Z,17.67
2022-07-30T00:03:44.511Z,17.66
2022-07-30T00:06:11.309Z,17.61
2022-07-30T00:09:55.747Z,17.54
2022-07-30T00:12:22.492Z,17.56
2022-07-30T00:14:49.265Z,17.60
2022-07-30T00:17:16.005Z,17.62
2022-07-30T00:19:44.101Z,17.64
2022-07-30T00:22:11.660Z,17.62
2022-07-30T00:24:38.370Z,17.61
2022-07-30T00:27:05.173Z,17.63
2022-07-30T00:29:31.934Z,17.66
2022-07-30T00:31:58.702Z,17.68
2022-07-30T00:34:25.427Z,17.70
2022-07-30T00:36:52.727Z,17.68
2022-07-30T00:39:19.427Z,17.67
2022-07-30T00:42:03.618Z,17.68
2022-07-30T00:44:30.883Z,17.65
2022-07-30T00:46:58.132Z,17.68
2022-07-30T00:49:25.746Z,17.71
2022-07-30T00:51:52.906Z,17.62
2022-07-30T00:54:21.472Z,17.50
2022-07-30T00:56:49.011Z,17.54
2022-07-30T00:59:16.302Z,17.50
2022-07-30T01:01:43.379Z,17.53
2022-07-30T01:04:11.936Z,17.50
2022-07-30T01:06:39.955Z,17.51
2022-07-30T01:09:07.755Z,17.54
2022-07-30T01:11:38.108Z,17.54
2022-07-30T01:14:06.824Z,17.53
2022-07-30T01:16:35.926Z,17.52
2022-07-30T01:19:28.312Z,17.50
2022-07-30T01:22:09.665Z,17.53
2022-07-30T01:24:41.519Z,17.50
2022-07-30T01:27:10.581Z,17.51
2022-07-30T01:29:39.925Z,17.53
2022-07-30T01:32:09.047Z,17.56
2022-07-30T01:34:37.829Z,17.56
2022-07-30T01:37:05.983Z,17.60
2022-07-30T01:39:33.867Z,17.59
2022-07-30T01:42:05.441Z,17.60
2022-07-30T01:44:33.113Z,17.60
2022-07-30T01:47:01.964Z,17.61
2022-07-30T01:49:30.135Z,17.59
2022-07-30T01:51:58.731Z,17.59
2022-07-30T01:54:28.043Z,17.55
2022-07-30T01:56:58.019Z,17.54
2022-07-30T01:59:26.782Z,17.54
2022-07-30T02:01:53.584Z,17.56
2022-07-30T02:04:20.594Z,17.54
2022-07-30T02:06:59.286Z,17.54
2022-07-30T02:09:34.267Z,17.56
2022-07-30T02:12:21.517Z,17.57
2022-07-30T02:14:53.842Z,17.56
2022-07-30T02:17:39.576Z,17.53
2022-07-30T02:20:10.674Z,17.51
2022-07-30T02:22:40.391Z,17.49
2022-07-30T02:25:10.602Z,17.50
2022-07-30T02:27:40.390Z,17.45
2022-07-30T02:30:08.111Z,17.43
2022-07-30T02:32:37.766Z,17.43
2022-07-30T02:35:11.280Z,17.43
2022-07-30T02:37:43.341Z,17.42
2022-07-30T02:40:14.321Z,17.44
2022-07-30T02:42:43.749Z,17.45
2022-07-30T02:45:12.009Z,17.46
2022-07-30T02:47:41.127Z,17.47
2022-07-30T02:50:10.194Z,17.45
2022-07-30T02:52:40.490Z,17.45
2022-07-30T02:55:10.027Z,17.46
2022-07-30T02:57:43.311Z,17.48
2022-07-30T03:00:12.011Z,17.48
2022-07-30T03:02:40.810Z,17.45
2022-07-30T03:05:14.094Z,17.44
2022-07-30T03:07:41.551Z,17.42
2022-07-30T03:10:09.620Z,17.41
2022-07-30T03:12:37.970Z,17.43
2022-07-30T03:15:05.278Z,17.47
2022-07-30T03:17:38.281Z,17.48
2022-07-30T03:20:08.951Z,17.49
2022-07-30T03:22:41.648Z,17.50
2022-07-30T03:25:10.357Z,17.44
2022-07-30T03:27:38.892Z,17.45
2022-07-30T03:30:07.610Z,17.39
2022-07-30T03:32:35.574Z,17.38
2022-07-30T03:35:06.376Z,17.36
2022-07-30T03:37:37.063Z,17.37
2022-07-30T03:40:05.502Z,17.38
2022-07-30T03:42:33.841Z,17.38
2022-07-30T03:45:05.866Z,17.40
2022-07-30T03:47:34.832Z,17.37
2022-07-30T03:50:02.205Z,17.36
2022-07-30T03:52:29.704Z,17.33
2022-07-30T03:54:56.516Z,17.34
2022-07-30T03:57:23.684Z,17.36
2022-07-30T03:59:51.867Z,17.39
2022-07-30T04:02:18.700Z,17.42
2022-07-30T04:04:45.524Z,17.41
2022-07-30T04:07:12.208Z,17.40
2022-07-30T04:09:38.963Z,17.37
2022-07-30T04:12:05.894Z,17.39
2022-07-30T04:14:43.316Z,17.37
2022-07-30T04:17:16.182Z,17.38
2022-07-30T04:19:48.245Z,17.42
2022-07-30T04:22:21.153Z,17.42
2022-07-30T04:24:49.353Z,17.42
2022-07-30T04:27:17.489Z,17.41
2022-07-30T04:29:44.440Z,17.41
2022-07-30T04:32:11.860Z,17.42
2022-07-30T04:34:46.691Z,17.44
2022-07-30T04:37:13.220Z,17.45
2022-07-30T04:39:39.917Z,17.48
2022-07-30T04:42:06.699Z,17.46
2022-07-30T04:44:34.416Z,17.44
2022-07-30T04:47:01.487Z,17.42
2022-07-30T04:49:28.936Z,17.44
2022-07-30T04:51:56.713Z,17.42
2022-07-30T04:54:25.594Z,17.43
2022-07-30T04:56:54.261Z,17.43
2022-07-30T04:59:25.374Z,17.42
2022-07-30T05:01:56.272Z,17.40
2022-07-30T05:04:25.118Z,17.40
2022-07-30T05:06:52.549Z,17.40
2022-07-30T05:09:19.931Z,17.40
2022-07-30T05:11:54.324Z,17.40
2022-07-30T05:14:22.002Z,17.37
2022-07-30T05:16:49.755Z,17.37
2022-07-30T05:19:19.321Z,17.39
2022-07-30T05:21:46.190Z,17.39
2022-07-30T05:24:13.274Z,17.38
2022-07-30T05:26:40.528Z,17.34
2022-07-30T05:29:08.181Z,17.31
2022-07-30T05:31:35.628Z,17.30
2022-07-30T05:34:05.031Z,17.33
2022-07-30T05:36:32.014Z,17.36
2022-07-30T05:38:58.786Z,17.32
2022-07-30T05:41:31.781Z,17.37
2022-07-30T05:44:00.334Z,17.36
2022-07-30T05:46:27.316Z,17.38
2022-07-30T05:48:54.216Z,17.43
2022-07-30T05:51:22.344Z,17.44
2022-07-30T05:53:49.522Z,17.48
2022-07-30T05:56:16.286Z,17.50
2022-07-30T05:58:43.275Z,17.50
2022-07-30T06:01:10.183Z,17.49
2022-07-30T06:03:38.822Z,17.47
2022-07-30T06:06:07.298Z,17.51
2022-07-30T06:08:34.125Z,17.55
2022-07-30T06:11:00.893Z,17.58
2022-07-30T06:13:27.641Z,17.63
2022-07-30T06:15:54.483Z,17.66
2022-07-30T06:18:23.235Z,17.67
2022-07-30T06:20:52.128Z,17.71
2022-07-30T06:23:19.391Z,17.70
2022-07-30T06:25:47.249Z,17.66
2022-07-30T06:28:36.438Z,17.63
2022-07-30T06:31:02.595Z,17.62
2022-07-30T06:33:29.558Z,17.63
2022-07-30T06:35:56.284Z,17.64
2022-07-30T06:38:23.035Z,17.67
2022-07-30T06:40:49.829Z,17.67
2022-07-30T06:43:16.697Z,17.71
2022-07-30T06:45:43.636Z,17.68
2022-07-30T06:48:10.334Z,17.68
2022-07-30T06:50:37.449Z,17.70
2022-07-30T06:53:04.214Z,17.70
2022-07-30T06:55:30.930Z,17.67
2022-07-30T06:57:57.725Z,17.66
2022-07-30T07:00:24.498Z,17.70
2022-07-30T07:02:51.704Z,17.71
2022-07-30T07:05:18.900Z,17.72
2022-07-30T07:07:57.896Z,17.74
2022-07-30T07:10:25.427Z,17.79
2022-07-30T07:12:52.349Z,17.83
2022-07-30T07:15:19.252Z,17.80
2022-07-30T07:17:49.296Z,17.77
2022-07-30T07:20:16.069Z,17.79
2022-07-30T07:22:42.807Z,17.77
2022-07-30T07:25:12.130Z,17.78
2022-07-30T07:27:38.901Z,17.76
2022-07-30T07:30:07.338Z,17.76
2022-07-30T07:32:35.303Z,17.77
2022-07-30T07:35:02.196Z,17.79
2022-07-30T07:37:29.018Z,17.77
2022-07-30T07:39:55.824Z,17.78
2022-07-30T07:42:22.564Z,17.81
2022-07-30T07:44:49.300Z,17.83
2022-07-30T07:47:16.012Z,17.85
2022-07-30T07:49:42.878Z,17.88
2022-07-30T07:52:09.613Z,17.91
2022-07-30T07:54:36.250Z,17.93
2022-07-30T07:57:08.735Z,17.95
2022-07-30T07:59:40.121Z,17.97
2022-07-30T08:02:08.865Z,18.04
2022-07-30T08:04:36.451Z,18.10
2022-07-30T08:07:04.231Z,18.20
2022-07-30T08:09:43.750Z,18.26
2022-07-30T08:12:12.930Z,18.30
2022-07-30T08:14:39.930Z,18.39
2022-07-30T08:17:07.305Z,18.41
2022-07-30T08:19:34.535Z,18.37
2022-07-30T08:22:01.255Z,18.41
2022-07-30T08:24:27.913Z,18.46
2022-07-30T08:26:54.642Z,18.53
2022-07-30T08:29:21.323Z,18.64
2022-07-30T08:31:48.034Z,18.75
2022-07-30T08:34:15.277Z,18.82
2022-07-30T08:36:42.376Z,18.79
2022-07-30T08:39:09.191Z,18.73
2022-07-30T08:41:38.925Z,18.83
2022-07-30T08:44:12.954Z,18.81
2022-07-30T08:46:47.480Z,18.69
2022-07-30T08:49:15.107Z,18.82
2022-07-30T08:51:42.629Z,18.91
2022-07-30T08:54:09.713Z,18.95
2022-07-30T08:56:37.288Z,19.05
2022-07-30T08:59:04.471Z,19.19
2022-07-30T09:01:31.274Z,19.30
2022-07-30T09:03:58.044Z,19.42
2022-07-30T09:06:24.858Z,19.43
2022-07-30T09:08:51.575Z,19.35
2022-07-30T09:11:18.319Z,19.39
2022-07-30T09:13:45.165Z,19.43
2022-07-30T09:16:23.557Z,19.45
2022-07-30T09:18:51.323Z,19.51
2022-07-30T09:21:27.094Z,19.57
2022-07-30T09:24:02.806Z,19.50
2022-07-30T09:26:31.371Z,19.44
2022-07-30T09:29:21.566Z,19.45
2022-07-30T09:32:08.172Z,19.36
2022-07-30T09:34:36.022Z,19.30
2022-07-30T09:37:12.555Z,19.29
2022-07-30T09:39:41.862Z,19.31
2022-07-30T09:42:21.782Z,19.30
2022-07-30T09:44:49.081Z,19.29
2022-07-30T09:47:41.783Z,19.38
2022-07-30T09:50:11.329Z,19.50
2022-07-30T09:52:44.120Z,19.61
2022-07-30T09:55:28.563Z,19.68
2022-07-30T09:57:59.326Z,19.77
2022-07-30T10:00:30.428Z,19.95
2022-07-30T10:02:57.635Z,20.04
2022-07-30T10:05:25.060Z,20.14
2022-07-30T10:07:55.660Z,20.14
2022-07-30T10:10:31.073Z,20.18
2022-07-30T10:13:04.579Z,20.18
2022-07-30T10:15:36.530Z,20.20
2022-07-30T10:18:06.290Z,20.24
2022-07-30T10:20:35.128Z,20.30
2022-07-30T10:23:08.002Z,20.31
2022-07-30T10:25:36.770Z,20.33
2022-07-30T10:28:17.125Z,20.31
2022-07-30T10:30:43.987Z,20.38
2022-07-30T10:33:34.602Z,20.32
2022-07-30T10:35:59.223Z,20.32
2022-07-30T10:38:34.453Z,20.25
2022-07-30T10:41:43.154Z,20.29
2022-07-30T10:44:20.766Z,20.33
2022-07-30T10:47:09.204Z,20.33
2022-07-30T10:49:41.568Z,20.32
2022-07-30T10:52:10.560Z,20.34
2022-07-30T10:54:47.556Z,20.41
2022-07-30T10:57:22.830Z,20.42
2022-07-30T11:00:00.566Z,20.39
2022-07-30T11:02:30.711Z,20.42
2022-07-30T11:05:43.705Z,20.47
2022-07-30T11:08:35.727Z,20.49
2022-07-30T11:11:19.146Z,20.51
2022-07-30T11:14:00.193Z,20.53
2022-07-30T11:16:32.829Z,20.56
2022-07-30T11:19:54.976Z,20.62
2022-07-30T11:22:29.762Z,20.58
2022-07-30T11:24:57.641Z,20.53
2022-07-30T11:27:48.851Z,20.73
2022-07-30T11:30:17.409Z,20.77
2022-07-30T11:32:56.322Z,20.88
2022-07-30T11:35:34.590Z,20.91
2022-07-30T11:38:19.083Z,20.91
2022-07-30T11:40:45.942Z,20.87
2022-07-30T11:43:20.351Z,20.88
2022-07-30T11:46:10.450Z,20.92
2022-07-30T11:48:40.260Z,20.79
2022-07-30T11:51:07.407Z,20.94
2022-07-30T11:53:34.790Z,20.98
2022-07-30T11:56:03.559Z,21.14
2022-07-30T11:58:37.390Z,21.22
2022-07-30T12:01:16.141Z,21.34
2022-07-30T12:03:45.082Z,21.76
2022-07-30T12:06:19.760Z,21.93
2022-07-30T12:08:48.862Z,21.96
2022-07-30T12:11:15.917Z,22.04
2022-07-30T12:13:46.115Z,21.95
2022-07-30T12:16:16.197Z,22.45
2022-07-30T12:18:43.312Z,22.37
2022-07-30T12:21:12.792Z,22.54
2022-07-30T12:23:39.759Z,22.60
2022-07-30T12:26:06.550Z,22.62
2022-07-30T12:28:35.146Z,22.61
2022-07-30T12:31:04.489Z,22.76
2022-07-30T12:33:31.564Z,22.84
2022-07-30T12:36:01.020Z,22.93
2022-07-30T12:38:29.103Z,22.90
2022-07-30T12:41:06.339Z,22.81
2022-07-30T12:43:55.928Z,22.87
2022-07-30T12:46:23.814Z,23.21
2022-07-30T12:48:55.455Z,23.46
2022-07-30T12:51:24.485Z,23.59
2022-07-30T12:53:53.144Z,23.75
2022-07-30T12:56:27.652Z,23.76
2022-07-30T12:58:55.791Z,23.63
2022-07-30T13:01:45.039Z,23.67
2022-07-30T13:04:13.523Z,23.70
2022-07-30T13:06:43.702Z,23.78
2022-07-30T13:09:21.641Z,23.79
2022-07-30T13:11:49.356Z,23.75
2022-07-30T13:14:17.459Z,23.56
2022-07-30T13:16:44.422Z,23.37
2022-07-30T13:19:12.319Z,23.12
2022-07-30T13:21:40.581Z,22.91
2022-07-30T13:24:18.129Z,22.72
2022-07-30T13:26:45.538Z,22.65
2022-07-30T13:29:13.685Z,22.50
2022-07-30T13:31:42.958Z,22.43
2022-07-30T13:34:11.287Z,22.45
2022-07-30T13:36:38.210Z,22.46
2022-07-30T13:39:04.897Z,22.53
2022-07-30T13:41:31.770Z,22.66
2022-07-30T13:43:58.482Z,22.70
2022-07-30T13:46:25.207Z,22.60
2022-07-30T13:48:52.236Z,22.46
2022-07-30T13:51:19.109Z,22.28
2022-07-30T13:53:46.103Z,22.03
2022-07-30T13:56:13.230Z,21.93
2022-07-30T13:58:40.860Z,21.80
2022-07-30T14:01:07.698Z,21.71
2022-07-30T14:03:35.461Z,21.68
2022-07-30T14:06:10.959Z,21.64
2022-07-30T14:08:38.838Z,21.68
2022-07-30T14:11:05.783Z,21.62
2022-07-30T14:13:32.499Z,21.63
2022-07-30T14:15:59.581Z,21.62
2022-07-30T14:18:26.365Z,21.60
2022-07-30T14:20:53.825Z,21.55
2022-07-30T14:23:20.729Z,21.53
2022-07-30T14:25:47.734Z,21.42
2022-07-30T14:28:15.055Z,21.33
2022-07-30T14:30:42.127Z,21.24
2022-07-30T14:33:08.916Z,21.17
2022-07-30T14:35:35.960Z,21.14
2022-07-30T14:38:03.666Z,21.07
2022-07-30T14:40:30.679Z,21.03
2022-07-30T14:42:57.960Z,20.93
2022-07-30T14:45:25.503Z,20.86
2022-07-30T14:47:53.051Z,20.80
2022-07-30T14:50:19.915Z,20.65
2022-07-30T14:52:47.607Z,20.61
2022-07-30T14:55:14.658Z,20.58
2022-07-30T14:57:43.542Z,20.46
2022-07-30T15:00:11.947Z,20.29
2022-07-30T15:02:38.818Z,20.25
2022-07-30T15:05:06.167Z,20.23
2022-07-30T15:07:34.742Z,20.40
2022-07-30T15:10:02.625Z,20.32
2022-07-30T15:12:29.497Z,20.18
2022-07-30T15:14:56.205Z,20.01
2022-07-30T15:17:22.951Z,19.90
2022-07-30T15:19:50.428Z,19.87
2022-07-30T15:22:18.757Z,19.83
2022-07-30T15:24:45.467Z,19.81
2022-07-30T15:27:12.226Z,19.77
2022-07-30T15:29:38.961Z,19.78
2022-07-30T15:32:06.474Z,19.81
2022-07-30T15:34:35.102Z,19.79
2022-07-30T15:37:06.450Z,19.75
2022-07-30T15:39:33.910Z,19.69
2022-07-30T15:42:02.211Z,19.62
2022-07-30T15:44:29.900Z,19.61
2022-07-30T15:46:56.690Z,19.61
2022-07-30T15:49:23.748Z,19.62
2022-07-30T15:51:51.847Z,19.60
2022-07-30T15:54:23.324Z,19.56
2022-07-30T15:56:51.552Z,19.53
2022-07-30T15:59:18.545Z,19.55
2022-07-30T16:01:45.490Z,19.55
2022-07-30T16:04:19.453Z,19.65
2022-07-30T16:06:47.961Z,19.66
2022-07-30T16:09:17.602Z,19.65
2022-07-30T16:11:44.435Z,19.63
2022-07-30T16:14:13.589Z,19.59
2022-07-30T16:16:40.286Z,19.63
2022-07-30T16:19:07.514Z,19.59
2022-07-30T16:21:34.845Z,19.58
2022-07-30T16:24:02.182Z,19.58
2022-07-30T16:26:29.081Z,19.65
2022-07-30T16:28:55.782Z,19.56
2022-07-30T16:31:22.773Z,19.55
2022-07-30T16:33:50.071Z,19.49
2022-07-30T16:36:17.042Z,19.46
2022-07-30T16:38:43.763Z,19.45
2022-07-30T16:41:13.431Z,19.47
2022-07-30T16:43:40.811Z,19.46
2022-07-30T16:46:07.603Z,19.46
2022-07-30T16:48:34.355Z,19.38
2022-07-30T16:51:01.035Z,19.52
2022-07-30T16:53:28.517Z,19.41
2022-07-30T16:55:57.082Z,19.29
2022-07-30T16:58:28.333Z,19.19
2022-07-30T17:00:58.255Z,19.08
2022-07-30T17:03:25.579Z,19.01
2022-07-30T17:05:52.424Z,18.96
2022-07-30T17:08:19.577Z,18.96
2022-07-30T17:10:52.420Z,18.88
2022-07-30T17:13:19.359Z,18.86
2022-07-30T17:15:46.941Z,18.86
2022-07-30T17:18:14.151Z,18.79
2022-07-30T17:20:41.018Z,18.81
2022-07-30T17:23:07.940Z,18.83
2022-07-30T17:25:34.770Z,18.81
2022-07-30T17:28:02.040Z,18.72
2022-07-30T17:30:30.041Z,18.68
2022-07-30T17:32:56.780Z,18.80
2022-07-30T17:35:24.857Z,18.76
2022-07-30T17:37:51.901Z,18.92
2022-07-30T17:40:28.369Z,18.82
2022-07-30T17:43:03.719Z,18.70
2022-07-30T17:45:32.375Z,18.62
2022-07-30T17:47:59.051Z,18.49
2022-07-30T17:50:25.780Z,18.42
2022-07-30T17:52:52.492Z,18.35
2022-07-30T17:55:19.350Z,18.33
2022-07-30T17:57:46.077Z,18.24
2022-07-30T18:00:13.557Z,18.20
2022-07-30T18:02:40.296Z,18.16
2022-07-30T18:05:07.450Z,18.09
2022-07-30T18:07:34.142Z,18.08
2022-07-30T18:10:00.872Z,18.04
2022-07-30T18:12:27.627Z,17.96
2022-07-30T18:19:47.759Z,17.80
2022-07-30T18:23:45.343Z,17.70
2022-07-30T18:26:12.566Z,17.65
2022-07-30T18:28:39.319Z,17.60
2022-07-30T18:31:06.418Z,17.56
2022-07-30T18:33:33.130Z,17.47
2022-07-30T18:35:59.889Z,17.28
2022-07-30T18:38:26.632Z,17.16
2022-07-30T18:40:59.165Z,17.11
2022-07-30T18:43:30.260Z,16.95
2022-07-30T18:45:58.086Z,16.88
2022-07-30T18:48:25.297Z,16.84
2022-07-30T18:50:53.119Z,16.74
2022-07-30T18:53:20.402Z,16.68
2022-07-30T18:55:47.279Z,16.64
2022-07-30T18:58:14.299Z,16.62
2022-07-30T19:00:44.026Z,16.59
2022-07-30T19:03:16.302Z,16.60
2022-07-30T19:05:44.545Z,16.56
2022-07-30T19:08:11.360Z,16.55
2022-07-30T19:10:38.160Z,16.55
2022-07-30T19:13:04.904Z,16.52
2022-07-30T19:15:31.693Z,16.45
2022-07-30T19:17:59.119Z,16.36
2022-07-30T19:20:26.771Z,16.32
2022-07-30T19:23:04.874Z,16.28
2022-07-30T19:25:33.289Z,16.26
2022-07-30T19:28:01.696Z,16.25
2022-07-30T19:30:29.897Z,16.26
2022-07-30T19:33:06.995Z,16.20
2022-07-30T19:35:36.024Z,16.07
2022-07-30T19:38:03.844Z,16.08
2022-07-30T19:40:31.036Z,16.08
2022-07-30T19:43:04.021Z,16.07
2022-07-30T19:45:47.567Z,16.07
2022-07-30T19:48:29.455Z,16.00
2022-07-30T19:50:59.384Z,15.96
2022-07-30T19:53:28.087Z,15.93
2022-07-30T19:56:01.807Z,15.83
2022-07-30T19:58:30.491Z,15.76
2022-07-30T20:00:57.412Z,15.73
2022-07-30T20:03:25.483Z,15.69
2022-07-30T20:05:57.285Z,15.63
2022-07-30T20:09:20.912Z,15.61
2022-07-30T20:11:47.610Z,15.60
2022-07-30T20:14:16.174Z,15.57
2022-07-30T20:16:43.209Z,15.35
2022-07-30T20:19:15.747Z,15.26
2022-07-30T20:21:56.480Z,15.18
2022-07-30T20:24:24.558Z,15.12
2022-07-30T20:26:52.470Z,15.13
2022-07-30T20:29:20.627Z,15.12
2022-07-30T20:31:49.733Z,15.09
2022-07-30T20:34:18.194Z,15.09
2022-07-30T20:39:21.160Z,15.06
2022-07-30T20:41:48.290Z,15.09
2022-07-30T20:44:23.315Z,15.09
2022-07-30T20:46:52.653Z,15.12
2022-07-30T20:49:24.158Z,15.09
2022-07-30T20:52:01.417Z,15.06
2022-07-30T20:54:30.083Z,15.07
2022-07-30T20:56:57.289Z,15.06
2022-07-30T20:59:25.077Z,15.08
2022-07-30T21:01:51.791Z,15.05
2022-07-30T21:04:25.411Z,15.02
2022-07-30T21:06:52.822Z,14.99
2022-07-30T21:09:20.373Z,14.98
2022-07-30T21:11:50.674Z,14.97
2022-07-30T21:14:18.080Z,14.71
2022-07-30T21:16:44.772Z,14.61
2022-07-30T21:19:14.537Z,14.58
2022-07-30T21:21:48.317Z,14.60
2022-07-30T21:24:19.353Z,14.62
2022-07-30T21:26:51.405Z,14.60
2022-07-30T21:29:18.864Z,14.58
2022-07-30T21:32:00.552Z,14.50
2022-07-30T21:34:35.227Z,14.35
2022-07-30T21:37:06.811Z,14.29
2022-07-30T21:39:39.811Z,14.30
2022-07-30T21:42:10.656Z,14.24
2022-07-30T21:44:38.578Z,14.19
2022-07-30T21:47:10.377Z,14.19
2022-07-30T21:49:38.667Z,14.13
2022-07-30T21:52:06.871Z,14.19
2022-07-30T21:54:38.975Z,14.18
2022-07-30T21:57:16.021Z,14.19
2022-07-30T21:59:52.886Z,14.15
2022-07-30T22:02:22.065Z,14.10
2022-07-30T22:04:51.236Z,14.07
2022-07-30T22:07:18.219Z,13.90
2022-07-30T22:09:45.327Z,13.90
2022-07-30T22:12:12.851Z,13.96
2022-07-30T22:14:44.846Z,14.03
2022-07-30T22:17:36.727Z,14.04
2022-07-30T22:20:08.871Z,14.10
2022-07-30T22:22:38.301Z,14.08
2022-07-30T22:25:09.451Z,14.03
2022-07-30T22:27:39.598Z,14.01
2022-07-30T22:30:08.989Z,14.06
2022-07-30T22:32:35.904Z,14.09
2022-07-30T22:35:02.642Z,14.13
2022-07-30T22:37:32.828Z,14.14
2022-07-30T22:40:01.709Z,14.15
2022-07-30T22:42:28.533Z,14.12
2022-07-30T22:44:55.586Z,14.12
2022-07-30T22:47:50.812Z,13.95
2022-07-30T22:50:10.080Z,13.89
2022-07-30T22:52:39.362Z,13.91
2022-07-30T22:55:09.096Z,13.76
2022-07-30T22:57:38.562Z,13.71
2022-07-30T23:00:11.435Z,13.71
2022-07-30T23:02:40.136Z,13.69
2022-07-30T23:05:10.738Z,13.63
2022-07-30T23:07:39.800Z,13.64
2022-07-30T23:10:12.391Z,13.64
2022-07-30T23:12:47.766Z,13.53
2022-07-30T23:15:14.913Z,13.49
2022-07-30T23:17:41.686Z,13.46
2022-07-30T23:20:11.568Z,13.42
2022-07-30T23:22:38.864Z,13.26
2022-07-30T23:25:07.944Z,13.24
2022-07-30T23:27:34.853Z,13.24
2022-07-30T23:30:01.678Z,13.29
2022-07-30T23:32:28.498Z,13.22
2022-07-30T23:34:55.349Z,13.18
2022-07-30T23:37:22.105Z,13.23
2022-07-30T23:39:48.860Z,13.34
2022-07-30T23:42:15.580Z,13.30
2022-07-30T23:44:42.365Z,13.36
2022-07-30T23:47:09.165Z,13.41
2022-07-30T23:49:35.960Z,13.44
2022-07-30T23:52:02.924Z,13.46
2022-07-30T23:54:29.686Z,13.56
2022-07-30T23:56:56.622Z,13.48
2022-07-30T23:59:24.209Z,13.47
